sensor_id;sensor_type;location;lat;lon;timestamp;temperature;humidity
52034;DHT22;38045;52.988;6.536;2024-03-29T00:01:48;8.20;63.30
52034;DHT22;38045;52.988;6.536;2024-03-29T00:04:13;8.10;63.40
52034;DHT22;38045;52.988;6.536;2024-03-29T00:06:39;8.20;63.40
52034;DHT22;38045;52.988;6.536;2024-03-29T00:09:04;8.20;63.30
52034;DHT22;38045;52.988;6.536;2024-03-29T00:11:30;8.20;63.30
52034;DHT22;38045;52.988;6.536;2024-03-29T00:13:57;8.20;63.20
52034;DHT22;38045;52.988;6.536;2024-03-29T00:16:22;8.20;63.10
52034;DHT22;38045;52.988;6.536;2024-03-29T00:18:51;8.20;63.20
52034;DHT22;38045;52.988;6.536;2024-03-29T00:21:17;8.20;63.20
52034;DHT22;38045;52.988;6.536;2024-03-29T00:23:43;8.20;63.10
52034;DHT22;38045;52.988;6.536;2024-03-29T00:26:10;8.20;62.90
52034;DHT22;38045;52.988;6.536;2024-03-29T00:28:36;8.20;63.00
52034;DHT22;38045;52.988;6.536;2024-03-29T00:31:02;8.20;62.90
52034;DHT22;38045;52.988;6.536;2024-03-29T00:33:27;8.20;63.00
52034;DHT22;38045;52.988;6.536;2024-03-29T00:35:53;8.30;62.90
52034;DHT22;38045;52.988;6.536;2024-03-29T00:38:19;8.20;62.90
52034;DHT22;38045;52.988;6.536;2024-03-29T00:40:44;8.20;62.90
52034;DHT22;38045;52.988;6.536;2024-03-29T00:43:10;8.20;62.90
52034;DHT22;38045;52.988;6.536;2024-03-29T00:45:35;8.20;63.00
52034;DHT22;38045;52.988;6.536;2024-03-29T00:48:01;8.20;63.20
52034;DHT22;38045;52.988;6.536;2024-03-29T00:50:27;8.20;63.20
52034;DHT22;38045;52.988;6.536;2024-03-29T00:52:52;8.10;63.20
52034;DHT22;38045;52.988;6.536;2024-03-29T00:55:18;8.10;63.10
52034;DHT22;38045;52.988;6.536;2024-03-29T00:57:43;8.20;63.00
52034;DHT22;38045;52.988;6.536;2024-03-29T01:00:09;8.20;63.10
52034;DHT22;38045;52.988;6.536;2024-03-29T01:02:36;8.10;63.10
52034;DHT22;38045;52.988;6.536;2024-03-29T01:05:02;8.10;63.20
52034;DHT22;38045;52.988;6.536;2024-03-29T01:07:28;8.10;63.10
52034;DHT22;38045;52.988;6.536;2024-03-29T01:09:54;8.10;63.10
52034;DHT22;38045;52.988;6.536;2024-03-29T01:12:19;8.10;63.00
52034;DHT22;38045;52.988;6.536;2024-03-29T01:14:45;8.10;63.00
52034;DHT22;38045;52.988;6.536;2024-03-29T01:17:11;8.20;62.90
52034;DHT22;38045;52.988;6.536;2024-03-29T01:19:37;8.10;63.00
52034;DHT22;38045;52.988;6.536;2024-03-29T01:22:03;8.20;62.80
52034;DHT22;38045;52.988;6.536;2024-03-29T01:24:29;8.20;62.70
52034;DHT22;38045;52.988;6.536;2024-03-29T01:26:55;8.20;62.70
52034;DHT22;38045;52.988;6.536;2024-03-29T01:29:21;8.20;62.80
52034;DHT22;38045;52.988;6.536;2024-03-29T01:31:46;8.20;62.80
52034;DHT22;38045;52.988;6.536;2024-03-29T01:34:12;8.10;62.80
52034;DHT22;38045;52.988;6.536;2024-03-29T01:36:38;8.10;62.90
52034;DHT22;38045;52.988;6.536;2024-03-29T01:39:03;8.10;63.00
52034;DHT22;38045;52.988;6.536;2024-03-29T01:41:29;8.10;63.10
52034;DHT22;38045;52.988;6.536;2024-03-29T01:43:55;8.10;63.10
52034;DHT22;38045;52.988;6.536;2024-03-29T01:46:24;8.00;63.20
52034;DHT22;38045;52.988;6.536;2024-03-29T01:48:51;8.00;63.20
52034;DHT22;38045;52.988;6.536;2024-03-29T01:51:17;8.10;63.10
52034;DHT22;38045;52.988;6.536;2024-03-29T01:53:43;8.10;63.10
52034;DHT22;38045;52.988;6.536;2024-03-29T01:56:10;8.10;63.10
52034;DHT22;38045;52.988;6.536;2024-03-29T01:58:37;8.10;63.10
52034;DHT22;38045;52.988;6.536;2024-03-29T02:01:05;8.00;63.20
52034;DHT22;38045;52.988;6.536;2024-03-29T02:03:32;8.00;63.30
52034;DHT22;38045;52.988;6.536;2024-03-29T02:05:58;8.00;63.30
52034;DHT22;38045;52.988;6.536;2024-03-29T02:08:25;8.00;63.30
52034;DHT22;38045;52.988;6.536;2024-03-29T02:10:51;8.00;63.30
52034;DHT22;38045;52.988;6.536;2024-03-29T02:13:17;8.00;63.40
52034;DHT22;38045;52.988;6.536;2024-03-29T02:15:42;7.90;63.40
52034;DHT22;38045;52.988;6.536;2024-03-29T02:18:08;7.90;63.40
52034;DHT22;38045;52.988;6.536;2024-03-29T02:20:34;8.00;63.40
52034;DHT22;38045;52.988;6.536;2024-03-29T02:23:13;7.90;63.50
52034;DHT22;38045;52.988;6.536;2024-03-29T02:25:39;7.90;63.40
52034;DHT22;38045;52.988;6.536;2024-03-29T02:28:05;7.80;63.50
52034;DHT22;38045;52.988;6.536;2024-03-29T02:30:31;7.80;63.60
52034;DHT22;38045;52.988;6.536;2024-03-29T02:33:01;7.80;63.60
52034;DHT22;38045;52.988;6.536;2024-03-29T02:35:27;7.80;63.70
52034;DHT22;38045;52.988;6.536;2024-03-29T02:37:52;7.80;63.80
52034;DHT22;38045;52.988;6.536;2024-03-29T02:40:21;7.70;63.80
52034;DHT22;38045;52.988;6.536;2024-03-29T02:42:50;7.60;63.90
52034;DHT22;38045;52.988;6.536;2024-03-29T02:45:16;7.60;64.10
52034;DHT22;38045;52.988;6.536;2024-03-29T02:47:43;7.50;64.20
52034;DHT22;38045;52.988;6.536;2024-03-29T02:50:11;7.50;64.20
52034;DHT22;38045;52.988;6.536;2024-03-29T02:52:36;7.50;64.30
52034;DHT22;38045;52.988;6.536;2024-03-29T02:55:02;7.50;64.20
52034;DHT22;38045;52.988;6.536;2024-03-29T02:57:28;7.50;64.20
52034;DHT22;38045;52.988;6.536;2024-03-29T02:59:53;7.50;64.30
52034;DHT22;38045;52.988;6.536;2024-03-29T03:02:19;7.50;64.20
52034;DHT22;38045;52.988;6.536;2024-03-29T03:04:45;7.60;64.10
52034;DHT22;38045;52.988;6.536;2024-03-29T03:07:10;7.60;64.10
52034;DHT22;38045;52.988;6.536;2024-03-29T03:09:54;7.60;64.10
52034;DHT22;38045;52.988;6.536;2024-03-29T03:12:38;7.60;64.10
52034;DHT22;38045;52.988;6.536;2024-03-29T03:15:04;7.60;64.10
52034;DHT22;38045;52.988;6.536;2024-03-29T03:17:31;7.60;64.00
52034;DHT22;38045;52.988;6.536;2024-03-29T03:19:57;7.60;64.00
52034;DHT22;38045;52.988;6.536;2024-03-29T03:22:22;7.60;64.00
52034;DHT22;38045;52.988;6.536;2024-03-29T03:24:48;7.60;64.00
52034;DHT22;38045;52.988;6.536;2024-03-29T03:27:14;7.70;63.80
52034;DHT22;38045;52.988;6.536;2024-03-29T03:29:39;7.80;63.90
52034;DHT22;38045;52.988;6.536;2024-03-29T03:32:06;7.70;63.90
52034;DHT22;38045;52.988;6.536;2024-03-29T03:34:32;7.80;63.90
52034;DHT22;38045;52.988;6.536;2024-03-29T03:36:58;7.80;63.70
52034;DHT22;38045;52.988;6.536;2024-03-29T03:39:23;7.80;63.60
52034;DHT22;38045;52.988;6.536;2024-03-29T03:41:49;7.80;63.60
52034;DHT22;38045;52.988;6.536;2024-03-29T03:44:15;7.80;63.40
52034;DHT22;38045;52.988;6.536;2024-03-29T03:46:41;7.80;63.50
52034;DHT22;38045;52.988;6.536;2024-03-29T03:49:07;7.80;63.50
52034;DHT22;38045;52.988;6.536;2024-03-29T03:51:32;7.80;63.40
52034;DHT22;38045;52.988;6.536;2024-03-29T03:53:58;7.80;63.60
52034;DHT22;38045;52.988;6.536;2024-03-29T03:56:23;7.80;63.40
52034;DHT22;38045;52.988;6.536;2024-03-29T03:58:49;7.80;63.40
52034;DHT22;38045;52.988;6.536;2024-03-29T04:01:15;7.80;63.30
52034;DHT22;38045;52.988;6.536;2024-03-29T04:03:40;7.80;63.30
52034;DHT22;38045;52.988;6.536;2024-03-29T04:06:06;7.80;63.20
52034;DHT22;38045;52.988;6.536;2024-03-29T04:08:32;7.80;63.40
52034;DHT22;38045;52.988;6.536;2024-03-29T04:11:01;7.80;63.30
52034;DHT22;38045;52.988;6.536;2024-03-29T04:13:27;7.90;63.10
52034;DHT22;38045;52.988;6.536;2024-03-29T04:15:52;7.90;63.30
52034;DHT22;38045;52.988;6.536;2024-03-29T04:18:18;7.90;63.20
52034;DHT22;38045;52.988;6.536;2024-03-29T04:20:44;7.90;63.20
52034;DHT22;38045;52.988;6.536;2024-03-29T04:23:09;7.90;63.20
52034;DHT22;38045;52.988;6.536;2024-03-29T04:25:35;7.90;63.20
52034;DHT22;38045;52.988;6.536;2024-03-29T04:28:00;7.90;62.80
52034;DHT22;38045;52.988;6.536;2024-03-29T04:30:26;8.00;63.10
52034;DHT22;38045;52.988;6.536;2024-03-29T04:32:51;8.00;63.10
52034;DHT22;38045;52.988;6.536;2024-03-29T04:35:17;8.00;63.00
52034;DHT22;38045;52.988;6.536;2024-03-29T04:37:42;7.90;63.00
52034;DHT22;38045;52.988;6.536;2024-03-29T04:40:08;8.00;63.00
52034;DHT22;38045;52.988;6.536;2024-03-29T04:42:34;7.90;63.00
52034;DHT22;38045;52.988;6.536;2024-03-29T04:45:00;8.00;63.10
52034;DHT22;38045;52.988;6.536;2024-03-29T04:47:26;7.90;63.20
52034;DHT22;38045;52.988;6.536;2024-03-29T04:49:52;8.00;63.20
52034;DHT22;38045;52.988;6.536;2024-03-29T04:52:17;7.90;63.20
52034;DHT22;38045;52.988;6.536;2024-03-29T04:54:43;8.00;63.20
52034;DHT22;38045;52.988;6.536;2024-03-29T04:57:09;8.00;63.10
52034;DHT22;38045;52.988;6.536;2024-03-29T04:59:35;8.00;63.30
52034;DHT22;38045;52.988;6.536;2024-03-29T05:02:01;8.00;63.20
52034;DHT22;38045;52.988;6.536;2024-03-29T05:04:27;8.00;63.10
52034;DHT22;38045;52.988;6.536;2024-03-29T05:06:54;8.00;63.10
52034;DHT22;38045;52.988;6.536;2024-03-29T05:09:20;8.00;63.10
52034;DHT22;38045;52.988;6.536;2024-03-29T05:11:46;8.00;63.10
52034;DHT22;38045;52.988;6.536;2024-03-29T05:14:19;8.00;63.10
52034;DHT22;38045;52.988;6.536;2024-03-29T05:16:45;8.10;62.80
52034;DHT22;38045;52.988;6.536;2024-03-29T05:19:12;8.10;62.90
52034;DHT22;38045;52.988;6.536;2024-03-29T05:21:38;8.10;63.00
52034;DHT22;38045;52.988;6.536;2024-03-29T05:24:05;8.10;62.90
52034;DHT22;38045;52.988;6.536;2024-03-29T05:26:30;8.20;62.90
52034;DHT22;38045;52.988;6.536;2024-03-29T05:28:56;8.20;62.90
52034;DHT22;38045;52.988;6.536;2024-03-29T05:31:23;8.20;63.00
52034;DHT22;38045;52.988;6.536;2024-03-29T05:33:49;8.20;62.90
52034;DHT22;38045;52.988;6.536;2024-03-29T05:36:15;8.30;62.90
52034;DHT22;38045;52.988;6.536;2024-03-29T05:38:41;8.30;62.80
52034;DHT22;38045;52.988;6.536;2024-03-29T05:41:07;8.30;62.90
52034;DHT22;38045;52.988;6.536;2024-03-29T05:43:32;8.30;62.80
52034;DHT22;38045;52.988;6.536;2024-03-29T05:45:58;8.30;62.90
52034;DHT22;38045;52.988;6.536;2024-03-29T05:48:25;8.30;62.90
52034;DHT22;38045;52.988;6.536;2024-03-29T05:50:51;8.30;62.90
52034;DHT22;38045;52.988;6.536;2024-03-29T05:53:17;8.30;62.90
52034;DHT22;38045;52.988;6.536;2024-03-29T05:55:42;8.30;63.00
52034;DHT22;38045;52.988;6.536;2024-03-29T05:58:08;8.40;63.00
52034;DHT22;38045;52.988;6.536;2024-03-29T06:00:33;8.40;63.10
52034;DHT22;38045;52.988;6.536;2024-03-29T06:03:01;8.40;63.00
52034;DHT22;38045;52.988;6.536;2024-03-29T06:05:29;8.40;63.10
52034;DHT22;38045;52.988;6.536;2024-03-29T06:07:55;8.40;63.10
52034;DHT22;38045;52.988;6.536;2024-03-29T06:10:21;8.50;63.10
52034;DHT22;38045;52.988;6.536;2024-03-29T06:12:46;8.50;63.10
52034;DHT22;38045;52.988;6.536;2024-03-29T06:15:12;8.50;63.20
52034;DHT22;38045;52.988;6.536;2024-03-29T06:17:56;8.50;63.10
52034;DHT22;38045;52.988;6.536;2024-03-29T06:20:23;8.50;63.20
52034;DHT22;38045;52.988;6.536;2024-03-29T06:22:48;8.60;62.90
52034;DHT22;38045;52.988;6.536;2024-03-29T06:25:14;8.60;63.20
52034;DHT22;38045;52.988;6.536;2024-03-29T06:27:41;8.60;63.30
52034;DHT22;38045;52.988;6.536;2024-03-29T06:30:09;8.60;63.20
52034;DHT22;38045;52.988;6.536;2024-03-29T06:32:34;8.60;63.30
52034;DHT22;38045;52.988;6.536;2024-03-29T06:35:00;8.60;63.30
52034;DHT22;38045;52.988;6.536;2024-03-29T06:37:26;8.60;63.30
52034;DHT22;38045;52.988;6.536;2024-03-29T06:39:53;8.60;63.40
52034;DHT22;38045;52.988;6.536;2024-03-29T06:42:19;8.60;63.50
52034;DHT22;38045;52.988;6.536;2024-03-29T06:44:45;8.60;63.50
52034;DHT22;38045;52.988;6.536;2024-03-29T06:47:11;8.60;63.60
52034;DHT22;38045;52.988;6.536;2024-03-29T06:49:37;8.60;63.60
52034;DHT22;38045;52.988;6.536;2024-03-29T06:52:02;8.70;63.70
52034;DHT22;38045;52.988;6.536;2024-03-29T06:54:28;8.60;63.90
52034;DHT22;38045;52.988;6.536;2024-03-29T06:56:55;8.70;63.90
52034;DHT22;38045;52.988;6.536;2024-03-29T06:59:21;8.70;64.00
52034;DHT22;38045;52.988;6.536;2024-03-29T07:01:47;8.70;64.30
52034;DHT22;38045;52.988;6.536;2024-03-29T07:04:19;8.70;64.30
52034;DHT22;38045;52.988;6.536;2024-03-29T07:06:45;8.60;64.50
52034;DHT22;38045;52.988;6.536;2024-03-29T07:09:13;8.70;64.50
52034;DHT22;38045;52.988;6.536;2024-03-29T07:11:39;8.70;64.90
52034;DHT22;38045;52.988;6.536;2024-03-29T07:14:04;8.70;65.10
52034;DHT22;38045;52.988;6.536;2024-03-29T07:16:31;8.70;65.10
52034;DHT22;38045;52.988;6.536;2024-03-29T07:18:56;8.80;65.50
52034;DHT22;38045;52.988;6.536;2024-03-29T07:21:22;8.80;65.60
52034;DHT22;38045;52.988;6.536;2024-03-29T07:23:47;8.80;65.70
52034;DHT22;38045;52.988;6.536;2024-03-29T07:26:14;8.80;66.00
52034;DHT22;38045;52.988;6.536;2024-03-29T07:28:39;8.80;66.30
52034;DHT22;38045;52.988;6.536;2024-03-29T07:31:06;8.80;66.50
52034;DHT22;38045;52.988;6.536;2024-03-29T07:33:36;8.80;66.70
52034;DHT22;38045;52.988;6.536;2024-03-29T07:36:02;8.80;66.60
52034;DHT22;38045;52.988;6.536;2024-03-29T07:38:29;8.80;67.10
52034;DHT22;38045;52.988;6.536;2024-03-29T07:40:55;8.90;67.20
52034;DHT22;38045;52.988;6.536;2024-03-29T07:43:22;9.00;67.30
52034;DHT22;38045;52.988;6.536;2024-03-29T07:45:48;9.00;67.30
52034;DHT22;38045;52.988;6.536;2024-03-29T07:48:17;9.00;67.30
52034;DHT22;38045;52.988;6.536;2024-03-29T07:50:45;9.00;67.80
52034;DHT22;38045;52.988;6.536;2024-03-29T07:53:10;9.00;67.80
52034;DHT22;38045;52.988;6.536;2024-03-29T07:55:38;8.90;67.80
52034;DHT22;38045;52.988;6.536;2024-03-29T07:58:04;8.90;68.10
52034;DHT22;38045;52.988;6.536;2024-03-29T08:00:33;8.90;68.50
52034;DHT22;38045;52.988;6.536;2024-03-29T08:02:59;8.80;68.60
52034;DHT22;38045;52.988;6.536;2024-03-29T08:05:26;8.80;68.70
52034;DHT22;38045;52.988;6.536;2024-03-29T08:07:52;8.80;69.00
52034;DHT22;38045;52.988;6.536;2024-03-29T08:10:18;8.70;69.30
52034;DHT22;38045;52.988;6.536;2024-03-29T08:12:43;8.60;69.40
52034;DHT22;38045;52.988;6.536;2024-03-29T08:15:09;8.60;69.00
52034;DHT22;38045;52.988;6.536;2024-03-29T08:17:36;8.60;69.00
52034;DHT22;38045;52.988;6.536;2024-03-29T08:20:02;8.60;69.80
52034;DHT22;38045;52.988;6.536;2024-03-29T08:22:28;8.60;70.00
52034;DHT22;38045;52.988;6.536;2024-03-29T08:24:55;8.60;70.10
52034;DHT22;38045;52.988;6.536;2024-03-29T08:27:21;8.60;70.00
52034;DHT22;38045;52.988;6.536;2024-03-29T08:29:46;8.50;70.00
52034;DHT22;38045;52.988;6.536;2024-03-29T08:32:14;8.50;70.50
52034;DHT22;38045;52.988;6.536;2024-03-29T08:34:40;8.50;70.30
52034;DHT22;38045;52.988;6.536;2024-03-29T08:37:06;8.50;70.80
52034;DHT22;38045;52.988;6.536;2024-03-29T08:39:32;8.60;70.60
52034;DHT22;38045;52.988;6.536;2024-03-29T08:42:00;8.60;71.10
52034;DHT22;38045;52.988;6.536;2024-03-29T08:44:31;8.60;71.10
52034;DHT22;38045;52.988;6.536;2024-03-29T08:46:57;8.60;70.80
52034;DHT22;38045;52.988;6.536;2024-03-29T08:49:24;8.80;71.00
52034;DHT22;38045;52.988;6.536;2024-03-29T08:51:50;8.90;71.30
52034;DHT22;38045;52.988;6.536;2024-03-29T08:54:15;9.00;71.40
52034;DHT22;38045;52.988;6.536;2024-03-29T08:56:41;9.00;70.90
52034;DHT22;38045;52.988;6.536;2024-03-29T08:59:07;9.20;70.60
52034;DHT22;38045;52.988;6.536;2024-03-29T09:01:41;9.20;70.70
52034;DHT22;38045;52.988;6.536;2024-03-29T09:04:07;9.40;70.60
52034;DHT22;38045;52.988;6.536;2024-03-29T09:06:39;9.40;70.40
52034;DHT22;38045;52.988;6.536;2024-03-29T09:09:06;9.40;69.80
52034;DHT22;38045;52.988;6.536;2024-03-29T09:11:32;9.40;70.00
52034;DHT22;38045;52.988;6.536;2024-03-29T09:13:58;9.40;70.00
52034;DHT22;38045;52.988;6.536;2024-03-29T09:16:27;9.30;70.00
52034;DHT22;38045;52.988;6.536;2024-03-29T09:18:54;9.20;70.40
52034;DHT22;38045;52.988;6.536;2024-03-29T09:21:20;9.20;70.50
52034;DHT22;38045;52.988;6.536;2024-03-29T09:23:46;9.20;70.30
52034;DHT22;38045;52.988;6.536;2024-03-29T09:26:11;9.30;70.50
52034;DHT22;38045;52.988;6.536;2024-03-29T09:28:39;9.40;70.30
52034;DHT22;38045;52.988;6.536;2024-03-29T09:31:05;9.40;70.30
52034;DHT22;38045;52.988;6.536;2024-03-29T09:33:31;9.40;70.20
52034;DHT22;38045;52.988;6.536;2024-03-29T09:35:57;9.40;70.40
52034;DHT22;38045;52.988;6.536;2024-03-29T09:38:27;9.40;70.30
52034;DHT22;38045;52.988;6.536;2024-03-29T09:41:14;9.40;70.30
52034;DHT22;38045;52.988;6.536;2024-03-29T09:43:45;9.40;70.10
52034;DHT22;38045;52.988;6.536;2024-03-29T09:46:14;9.50;70.10
52034;DHT22;38045;52.988;6.536;2024-03-29T09:48:41;9.50;70.00
52034;DHT22;38045;52.988;6.536;2024-03-29T09:51:07;9.60;69.60
52034;DHT22;38045;52.988;6.536;2024-03-29T09:53:37;9.60;69.80
52034;DHT22;38045;52.988;6.536;2024-03-29T09:56:06;9.70;69.40
52034;DHT22;38045;52.988;6.536;2024-03-29T09:58:33;9.80;69.50
52034;DHT22;38045;52.988;6.536;2024-03-29T10:01:00;9.90;69.40
52034;DHT22;38045;52.988;6.536;2024-03-29T10:03:25;10.00;68.70
52034;DHT22;38045;52.988;6.536;2024-03-29T10:05:59;10.00;68.80
52034;DHT22;38045;52.988;6.536;2024-03-29T10:08:29;10.00;68.50
52034;DHT22;38045;52.988;6.536;2024-03-29T10:10:56;10.00;68.30
52034;DHT22;38045;52.988;6.536;2024-03-29T10:13:22;10.00;68.40
52034;DHT22;38045;52.988;6.536;2024-03-29T10:15:51;10.10;68.30
52034;DHT22;38045;52.988;6.536;2024-03-29T10:18:19;10.20;68.00
52034;DHT22;38045;52.988;6.536;2024-03-29T10:20:46;10.20;68.00
52034;DHT22;38045;52.988;6.536;2024-03-29T10:23:12;10.30;67.80
52034;DHT22;38045;52.988;6.536;2024-03-29T10:25:37;10.40;68.30
52034;DHT22;38045;52.988;6.536;2024-03-29T10:28:03;10.50;67.70
52034;DHT22;38045;52.988;6.536;2024-03-29T10:30:29;10.50;67.40
52034;DHT22;38045;52.988;6.536;2024-03-29T10:32:56;10.70;67.70
52034;DHT22;38045;52.988;6.536;2024-03-29T10:35:22;10.90;67.60
52034;DHT22;38045;52.988;6.536;2024-03-29T10:37:50;11.00;66.10
52034;DHT22;38045;52.988;6.536;2024-03-29T10:40:17;11.30;66.10
52034;DHT22;38045;52.988;6.536;2024-03-29T10:42:45;11.50;65.30
52034;DHT22;38045;52.988;6.536;2024-03-29T10:45:14;11.90;65.20
52034;DHT22;38045;52.988;6.536;2024-03-29T10:47:41;12.10;64.00
52034;DHT22;38045;52.988;6.536;2024-03-29T10:50:11;12.00;62.60
52034;DHT22;38045;52.988;6.536;2024-03-29T10:52:39;11.90;63.70
52034;DHT22;38045;52.988;6.536;2024-03-29T10:55:08;11.70;62.90
52034;DHT22;38045;52.988;6.536;2024-03-29T10:57:34;11.70;63.20
52034;DHT22;38045;52.988;6.536;2024-03-29T11:00:08;11.50;63.60
52034;DHT22;38045;52.988;6.536;2024-03-29T11:03:05;11.40;62.80
52034;DHT22;38045;52.988;6.536;2024-03-29T11:05:33;11.20;63.50
52034;DHT22;38045;52.988;6.536;2024-03-29T11:08:19;11.10;63.40
52034;DHT22;38045;52.988;6.536;2024-03-29T11:11:07;11.10;63.20
52034;DHT22;38045;52.988;6.536;2024-03-29T11:13:58;11.00;63.80
52034;DHT22;38045;52.988;6.536;2024-03-29T11:16:21;11.00;63.90
52034;DHT22;38045;52.988;6.536;2024-03-29T11:18:47;11.10;64.40
52034;DHT22;38045;52.988;6.536;2024-03-29T11:21:15;11.30;64.60
52034;DHT22;38045;52.988;6.536;2024-03-29T11:23:48;11.40;64.00
52034;DHT22;38045;52.988;6.536;2024-03-29T11:26:15;11.50;63.70
52034;DHT22;38045;52.988;6.536;2024-03-29T11:28:41;11.50;63.80
52034;DHT22;38045;52.988;6.536;2024-03-29T11:31:09;11.50;63.10
52034;DHT22;38045;52.988;6.536;2024-03-29T11:38:37;11.70;63.60
52034;DHT22;38045;52.988;6.536;2024-03-29T11:41:09;11.70;63.60
52034;DHT22;38045;52.988;6.536;2024-03-29T11:43:35;11.70;62.50
52034;DHT22;38045;52.988;6.536;2024-03-29T11:46:04;11.60;63.60
52034;DHT22;38045;52.988;6.536;2024-03-29T11:48:30;11.70;63.80
52034;DHT22;38045;52.988;6.536;2024-03-29T11:50:57;11.70;63.70
52034;DHT22;38045;52.988;6.536;2024-03-29T11:53:23;11.80;63.20
52034;DHT22;38045;52.988;6.536;2024-03-29T11:55:49;11.90;62.80
52034;DHT22;38045;52.988;6.536;2024-03-29T11:58:22;12.10;63.20
52034;DHT22;38045;52.988;6.536;2024-03-29T12:00:48;12.30;62.60
52034;DHT22;38045;52.988;6.536;2024-03-29T12:03:18;12.50;62.60
52034;DHT22;38045;52.988;6.536;2024-03-29T12:05:46;12.60;61.80
52034;DHT22;38045;52.988;6.536;2024-03-29T12:08:12;12.70;62.30
52034;DHT22;38045;52.988;6.536;2024-03-29T12:10:38;12.60;61.30
52034;DHT22;38045;52.988;6.536;2024-03-29T12:13:07;12.70;61.10
52034;DHT22;38045;52.988;6.536;2024-03-29T12:15:33;12.90;61.60
52034;DHT22;38045;52.988;6.536;2024-03-29T12:18:01;13.10;61.10
52034;DHT22;38045;52.988;6.536;2024-03-29T12:20:36;13.30;59.90
52034;DHT22;38045;52.988;6.536;2024-03-29T12:23:06;13.40;60.80
52034;DHT22;38045;52.988;6.536;2024-03-29T12:25:33;13.50;59.00
52034;DHT22;38045;52.988;6.536;2024-03-29T12:28:00;13.30;59.20
52034;DHT22;38045;52.988;6.536;2024-03-29T12:30:26;13.30;59.40
52034;DHT22;38045;52.988;6.536;2024-03-29T12:35:28;13.10;58.20
52034;DHT22;38045;52.988;6.536;2024-03-29T12:37:54;12.80;59.00
52034;DHT22;38045;52.988;6.536;2024-03-29T12:40:21;12.70;59.30
52034;DHT22;38045;52.988;6.536;2024-03-29T12:42:51;12.70;59.50
52034;DHT22;38045;52.988;6.536;2024-03-29T12:45:21;12.70;59.80
52034;DHT22;38045;52.988;6.536;2024-03-29T12:47:48;12.80;59.00
52034;DHT22;38045;52.988;6.536;2024-03-29T12:50:27;12.80;60.00
52034;DHT22;38045;52.988;6.536;2024-03-29T12:52:58;13.00;59.00
52034;DHT22;38045;52.988;6.536;2024-03-29T12:55:24;13.00;59.00
52034;DHT22;38045;52.988;6.536;2024-03-29T12:57:53;13.00;59.70
52034;DHT22;38045;52.988;6.536;2024-03-29T13:00:23;13.10;59.40
52034;DHT22;38045;52.988;6.536;2024-03-29T13:02:49;13.30;59.70
52034;DHT22;38045;52.988;6.536;2024-03-29T13:05:15;13.30;58.90
52034;DHT22;38045;52.988;6.536;2024-03-29T13:07:41;13.50;58.60
52034;DHT22;38045;52.988;6.536;2024-03-29T13:10:07;13.50;58.70
52034;DHT22;38045;52.988;6.536;2024-03-29T13:12:41;13.60;59.00
52034;DHT22;38045;52.988;6.536;2024-03-29T13:15:26;13.50;58.30
52034;DHT22;38045;52.988;6.536;2024-03-29T13:17:56;13.30;58.10
52034;DHT22;38045;52.988;6.536;2024-03-29T13:20:23;13.00;58.50
52034;DHT22;38045;52.988;6.536;2024-03-29T13:22:50;12.90;58.70
52034;DHT22;38045;52.988;6.536;2024-03-29T13:25:16;12.70;58.90
52034;DHT22;38045;52.988;6.536;2024-03-29T13:27:43;12.70;59.20
52034;DHT22;38045;52.988;6.536;2024-03-29T13:30:11;12.60;59.40
52034;DHT22;38045;52.988;6.536;2024-03-29T13:32:38;12.60;59.60
52034;DHT22;38045;52.988;6.536;2024-03-29T13:35:05;12.60;59.80
52034;DHT22;38045;52.988;6.536;2024-03-29T13:37:32;12.70;60.10
52034;DHT22;38045;52.988;6.536;2024-03-29T13:39:58;12.70;60.40
52034;DHT22;38045;52.988;6.536;2024-03-29T13:42:23;12.90;60.20
52034;DHT22;38045;52.988;6.536;2024-03-29T13:44:52;12.90;60.00
52034;DHT22;38045;52.988;6.536;2024-03-29T13:47:21;13.00;60.10
52034;DHT22;38045;52.988;6.536;2024-03-29T13:49:47;12.90;59.80
52034;DHT22;38045;52.988;6.536;2024-03-29T13:52:14;13.00;60.00
52034;DHT22;38045;52.988;6.536;2024-03-29T13:54:44;12.90;60.20
52034;DHT22;38045;52.988;6.536;2024-03-29T13:57:14;12.90;60.50
52034;DHT22;38045;52.988;6.536;2024-03-29T13:59:40;13.00;60.40
52034;DHT22;38045;52.988;6.536;2024-03-29T14:02:15;13.20;60.50
52034;DHT22;38045;52.988;6.536;2024-03-29T14:04:42;13.40;60.30
52034;DHT22;38045;52.988;6.536;2024-03-29T14:07:12;13.50;60.30
52034;DHT22;38045;52.988;6.536;2024-03-29T14:09:39;13.40;59.50
52034;DHT22;38045;52.988;6.536;2024-03-29T14:12:06;13.30;59.80
52034;DHT22;38045;52.988;6.536;2024-03-29T14:14:31;13.10;60.50
52034;DHT22;38045;52.988;6.536;2024-03-29T14:16:57;13.10;60.90
52034;DHT22;38045;52.988;6.536;2024-03-29T14:19:23;13.40;60.30
52034;DHT22;38045;52.988;6.536;2024-03-29T14:21:49;13.60;60.20
52034;DHT22;38045;52.988;6.536;2024-03-29T14:24:15;13.70;60.20
52034;DHT22;38045;52.988;6.536;2024-03-29T14:26:43;13.90;59.60
52034;DHT22;38045;52.988;6.536;2024-03-29T14:29:09;13.80;59.70
52034;DHT22;38045;52.988;6.536;2024-03-29T14:31:37;13.70;59.80
52034;DHT22;38045;52.988;6.536;2024-03-29T14:34:02;13.70;59.60
52034;DHT22;38045;52.988;6.536;2024-03-29T14:36:28;13.60;60.10
52034;DHT22;38045;52.988;6.536;2024-03-29T14:38:57;13.50;60.40
52034;DHT22;38045;52.988;6.536;2024-03-29T14:41:25;13.60;60.60
52034;DHT22;38045;52.988;6.536;2024-03-29T14:43:52;13.70;59.70
52034;DHT22;38045;52.988;6.536;2024-03-29T14:46:18;13.90;60.00
52034;DHT22;38045;52.988;6.536;2024-03-29T14:48:46;14.20;59.90
52034;DHT22;38045;52.988;6.536;2024-03-29T14:51:12;14.40;58.60
52034;DHT22;38045;52.988;6.536;2024-03-29T14:53:37;14.40;57.80
52034;DHT22;38045;52.988;6.536;2024-03-29T14:56:03;14.40;57.80
52034;DHT22;38045;52.988;6.536;2024-03-29T14:58:29;14.30;58.50
52034;DHT22;38045;52.988;6.536;2024-03-29T15:00:55;14.30;58.20
52034;DHT22;38045;52.988;6.536;2024-03-29T15:03:20;14.20;57.90
52034;DHT22;38045;52.988;6.536;2024-03-29T15:05:46;14.10;58.30
52034;DHT22;38045;52.988;6.536;2024-03-29T15:08:12;14.20;58.50
52034;DHT22;38045;52.988;6.536;2024-03-29T15:10:42;14.40;57.90
52034;DHT22;38045;52.988;6.536;2024-03-29T15:13:08;14.30;57.80
52034;DHT22;38045;52.988;6.536;2024-03-29T15:15:34;14.20;58.20
52034;DHT22;38045;52.988;6.536;2024-03-29T15:18:05;14.10;58.40
52034;DHT22;38045;52.988;6.536;2024-03-29T15:20:32;14.10;58.30
52034;DHT22;38045;52.988;6.536;2024-03-29T15:22:58;14.10;58.50
52034;DHT22;38045;52.988;6.536;2024-03-29T15:25:24;14.00;58.00
52034;DHT22;38045;52.988;6.536;2024-03-29T15:27:49;14.00;58.20
52034;DHT22;38045;52.988;6.536;2024-03-29T15:30:33;14.00;57.70
52034;DHT22;38045;52.988;6.536;2024-03-29T15:33:01;14.00;58.20
52034;DHT22;38045;52.988;6.536;2024-03-29T15:35:27;14.30;57.20
52034;DHT22;38045;52.988;6.536;2024-03-29T15:37:53;14.60;56.10
52034;DHT22;38045;52.988;6.536;2024-03-29T15:40:20;14.50;55.70
52034;DHT22;38045;52.988;6.536;2024-03-29T15:42:45;14.30;55.40
52034;DHT22;38045;52.988;6.536;2024-03-29T15:45:12;14.10;56.50
52034;DHT22;38045;52.988;6.536;2024-03-29T15:47:37;14.00;56.90